createdAt,value
2018-11-04T00:02:02.739Z,100957
2018-11-04T00:04:31.570Z,100953
2018-11-04T00:07:00.413Z,100955
2018-11-04T00:09:29.288Z,100950
2018-11-04T00:11:58.101Z,100956
2018-11-04T00:14:26.956Z,100954
2018-11-04T00:16:55.787Z,100943
2018-11-04T00:19:24.635Z,100947
2018-11-04T00:21:53.470Z,100942
2018-11-04T00:24:23.063Z,100940
2018-11-04T00:26:51.954Z,100927
2018-11-04T00:29:20.742Z,100920
2018-11-04T00:31:49.598Z,100913
2018-11-04T00:34:18.465Z,100923
2018-11-04T00:36:47.279Z,100911
2018-11-04T00:39:16.113Z,100907
2018-11-04T00:41:45.710Z,100907
2018-11-04T00:44:14.555Z,100899
2018-11-04T00:46:43.390Z,100901
2018-11-04T00:49:12.237Z,100895
2018-11-04T00:51:41.069Z,100900
2018-11-04T00:54:09.914Z,100897
2018-11-04T00:56:38.750Z,100897
2018-11-04T00:59:07.581Z,100895
2018-11-04T01:01:36.440Z,100881
2018-11-04T01:04:06.018Z,100880
2018-11-04T01:06:34.873Z,100887
2018-11-04T01:09:03.763Z,100885
2018-11-04T01:11:33.303Z,100883
2018-11-04T01:14:02.154Z,100876
2018-11-04T01:16:30.999Z,100869
2018-11-04T01:19:00.574Z,100865
2018-11-04T01:21:29.413Z,100866
2018-11-04T01:23:58.327Z,100863
2018-11-04T01:26:27.095Z,100864
2018-11-04T01:28:55.943Z,100848
2018-11-04T01:31:24.781Z,100848
2018-11-04T01:33:53.625Z,100849
2018-11-04T01:36:22.481Z,100848
2018-11-04T01:38:51.330Z,100844
2018-11-04T01:41:20.178Z,100844
2018-11-04T01:43:49.014Z,100831
2018-11-04T01:46:17.872Z,100833
2018-11-04T01:48:46.724Z,100830
2018-11-04T01:51:15.563Z,100825
2018-11-04T01:53:45.145Z,100826
2018-11-04T01:56:14.009Z,100821
2018-11-04T01:58:42.846Z,100815
2018-11-04T02:01:11.688Z,100808
2018-11-04T02:03:40.524Z,100809
2018-11-04T02:06:10.128Z,100796
2018-11-04T02:08:38.973Z,100797
2018-11-04T02:11:07.827Z,100797
2018-11-04T02:13:36.687Z,100797
2018-11-04T02:16:05.532Z,100789
2018-11-04T02:18:34.386Z,100784
2018-11-04T02:21:03.963Z,100785
2018-11-04T02:23:32.804Z,100773
2018-11-04T02:26:01.641Z,100765
2018-11-04T02:28:30.481Z,100771
2018-11-04T02:30:59.333Z,100763
2018-11-04T02:33:28.169Z,100760
2018-11-04T02:35:57.029Z,100760
2018-11-04T02:38:26.608Z,100760
2018-11-04T02:40:55.449Z,100760
2018-11-04T02:43:24.289Z,100754
2018-11-04T02:45:53.159Z,100777
2018-11-04T02:48:21.965Z,100757
2018-11-04T02:50:50.797Z,100750
2018-11-04T02:53:19.636Z,100756
2018-11-04T02:55:48.478Z,100755
2018-11-04T02:58:17.319Z,100756
2018-11-04T03:00:46.163Z,100747
2018-11-04T03:03:15.004Z,100750
2018-11-04T03:05:43.851Z,100778
2018-11-04T03:08:12.696Z,100747
2018-11-04T03:10:42.270Z,100748
2018-11-04T03:13:11.107Z,100744
2018-11-04T03:15:39.944Z,100738
2018-11-04T03:18:08.778Z,100734
2018-11-04T03:20:38.365Z,100736
2018-11-04T03:23:07.208Z,100737
2018-11-04T03:25:36.055Z,100733
2018-11-04T03:28:05.642Z,100735
2018-11-04T03:30:34.487Z,100726
2018-11-04T03:33:03.325Z,100729
2018-11-04T03:35:32.171Z,100725
2018-11-04T03:38:01.010Z,100720
2018-11-04T03:40:30.822Z,100722
2018-11-04T03:42:59.438Z,100720
2018-11-04T03:45:28.269Z,100723
2018-11-04T03:47:57.126Z,100722
2018-11-04T03:50:25.958Z,100720
2018-11-04T03:52:54.795Z,100722
2018-11-04T03:55:23.635Z,100718
2018-11-04T03:57:52.464Z,100719
2018-11-04T04:00:21.298Z,100713
2018-11-04T04:02:50.153Z,100709
2018-11-04T04:05:18.977Z,100706
2018-11-04T04:07:47.821Z,100707
2018-11-04T04:10:16.667Z,100707
2018-11-04T04:12:45.529Z,100714
2018-11-04T04:15:14.349Z,100712
2018-11-04T04:17:43.194Z,100712
2018-11-04T04:20:12.038Z,100707
2018-11-04T04:22:40.878Z,100702
2018-11-04T04:25:09.732Z,100705
2018-11-04T04:27:39.305Z,100701
2018-11-04T04:30:08.158Z,100695
2018-11-04T04:32:37.009Z,100687
2018-11-04T04:35:05.848Z,100697
2018-11-04T04:37:34.690Z,100699
2018-11-04T04:40:04.256Z,100695
2018-11-04T04:42:33.091Z,100693
2018-11-04T04:45:02.669Z,100688
2018-11-04T04:47:31.529Z,100689
2018-11-04T04:50:00.381Z,100681
2018-11-04T04:52:29.222Z,100691
2018-11-04T04:54:58.062Z,100685
2018-11-04T04:57:26.916Z,100691
2018-11-04T04:59:55.766Z,100679
2018-11-04T05:02:24.649Z,100680
2018-11-04T05:04:53.440Z,100684
2018-11-04T05:07:22.277Z,100672
2018-11-04T05:09:51.122Z,100674
2018-11-04T05:12:19.953Z,100667
2018-11-04T05:14:48.822Z,100670
2018-11-04T05:17:17.649Z,100670
2018-11-04T05:19:46.477Z,100664
2018-11-04T05:22:15.312Z,100660
2018-11-04T05:24:44.163Z,100666
2018-11-04T05:27:13.016Z,100657
2018-11-04T05:29:42.584Z,100657
2018-11-04T05:32:11.419Z,100651
2018-11-04T05:34:40.323Z,100654
2018-11-04T05:37:09.838Z,100648
2018-11-04T05:39:38.690Z,100656
2018-11-04T05:42:08.284Z,100651
2018-11-04T05:44:37.851Z,100654
2018-11-04T05:47:06.700Z,100657
2018-11-04T05:49:35.548Z,100654
2018-11-04T05:52:04.393Z,100662
2018-11-04T05:54:33.243Z,100654
2018-11-04T05:57:02.820Z,100655
2018-11-04T05:59:31.655Z,100655
2018-11-04T06:02:01.231Z,100653
2018-11-04T06:04:30.076Z,100654
2018-11-04T06:06:58.907Z,100654
2018-11-04T06:09:27.761Z,100662
2018-11-04T06:11:56.590Z,100661
2018-11-04T06:14:25.434Z,100654
2018-11-04T06:16:54.269Z,100653
2018-11-04T06:19:23.120Z,100654
2018-11-04T06:21:51.938Z,100651
2018-11-04T06:24:20.773Z,100653
2018-11-04T06:26:49.600Z,100639
2018-11-04T06:29:18.445Z,100648
2018-11-04T06:31:47.269Z,100637
2018-11-04T06:34:16.103Z,100638
2018-11-04T06:36:45.698Z,100642
2018-11-04T06:39:14.536Z,100640
2018-11-04T06:41:43.376Z,100643
2018-11-04T06:44:12.213Z,100645
2018-11-04T06:46:41.061Z,100646
2018-11-04T06:49:09.896Z,100643
2018-11-04T06:51:38.729Z,100645
2018-11-04T06:54:07.579Z,100647
2018-11-04T06:56:36.424Z,100643
2018-11-04T06:59:06.005Z,100637
2018-11-04T07:01:34.838Z,100642
2018-11-04T07:04:08.530Z,100647
2018-11-04T07:06:37.366Z,100646
2018-11-04T07:09:06.239Z,100647
2018-11-04T07:11:35.789Z,100649
2018-11-04T07:14:04.640Z,100639
2018-11-04T07:17:04.451Z,100646
2018-11-04T07:19:33.289Z,100638
2018-11-04T07:22:02.134Z,100642
2018-11-04T07:24:30.973Z,100650
2018-11-04T07:26:59.828Z,100645
2018-11-04T07:29:28.684Z,100647
2018-11-04T07:31:57.565Z,100655
2018-11-04T07:34:26.962Z,100667
2018-11-04T07:36:55.798Z,100667
2018-11-04T07:39:24.624Z,100667
2018-11-04T07:41:54.203Z,100674
2018-11-04T07:44:23.167Z,100665
2018-11-04T07:46:51.915Z,100659
2018-11-04T07:49:21.508Z,100658
2018-11-04T07:51:50.340Z,100666
2018-11-04T07:54:19.172Z,100659
2018-11-04T07:56:48.089Z,100661
2018-11-04T07:59:16.872Z,100655
2018-11-04T08:01:45.711Z,100657
2018-11-04T08:04:14.574Z,100651
2018-11-04T08:06:44.138Z,100646
2018-11-04T08:09:12.974Z,100648
2018-11-04T08:11:41.846Z,100641
2018-11-04T08:14:10.686Z,100633
2018-11-04T08:16:39.528Z,100632
2018-11-04T08:19:09.099Z,100635
2018-11-04T08:21:37.954Z,100626
2018-11-04T08:24:06.798Z,100631
2018-11-04T08:26:35.647Z,100632
2018-11-04T08:29:04.470Z,100647
2018-11-04T08:31:34.055Z,100635
2018-11-04T08:34:02.909Z,100638
2018-11-04T08:36:31.754Z,100637
2018-11-04T08:39:00.600Z,100633
2018-11-04T08:41:29.457Z,100636
2018-11-04T08:43:58.304Z,100638
2018-11-04T08:46:27.923Z,100645
2018-11-04T08:48:56.802Z,100638
2018-11-04T08:51:25.637Z,100625
2018-11-04T08:53:54.474Z,100631
2018-11-04T08:56:23.326Z,100631
2018-11-04T08:58:52.173Z,100624
2018-11-04T09:01:21.016Z,100633
2018-11-04T09:03:49.920Z,100628
2018-11-04T09:06:18.860Z,100631
2018-11-04T09:08:48.425Z,100623
2018-11-04T09:11:17.263Z,100631
2018-11-04T09:13:46.131Z,100639
2018-11-04T09:16:15.764Z,100629
2018-11-04T09:18:44.608Z,100631
2018-11-04T09:21:13.451Z,100619
2018-11-04T09:23:42.396Z,100624
2018-11-04T09:26:11.136Z,100623
2018-11-04T09:28:39.988Z,100613
2018-11-04T09:31:08.840Z,100608
2018-11-04T09:33:37.676Z,100598
2018-11-04T09:36:06.646Z,100590
2018-11-04T09:38:35.392Z,100590
2018-11-04T09:41:04.235Z,100593
2018-11-04T09:43:33.089Z,100593
2018-11-04T09:46:01.922Z,100594
2018-11-04T09:48:31.497Z,100593
2018-11-04T09:51:00.352Z,100599
2018-11-04T09:53:29.203Z,100589
2018-11-04T09:55:58.050Z,100587
2018-11-04T09:58:26.889Z,100582
2018-11-04T10:00:55.864Z,100575
2018-11-04T10:03:24.684Z,100567
2018-11-04T10:05:53.535Z,100571
2018-11-04T10:08:22.357Z,100573
2018-11-04T10:10:51.214Z,100570
2018-11-04T10:13:20.096Z,100558
2018-11-04T10:15:48.895Z,100558
2018-11-04T10:18:17.800Z,100552
2018-11-04T10:20:47.039Z,100551
2018-11-04T10:23:15.488Z,100553
2018-11-04T10:25:44.315Z,100548
2018-11-04T10:28:13.175Z,100550
2018-11-04T10:30:42.768Z,100552
2018-11-04T10:33:11.616Z,100541
2018-11-04T10:35:40.455Z,100548
2018-11-04T10:38:09.305Z,100539
2018-11-04T10:40:38.153Z,100531
2018-11-04T10:43:07.017Z,100532
2018-11-04T10:45:36.597Z,100531
2018-11-04T10:48:06.217Z,100530
2018-11-04T10:50:35.807Z,100529
2018-11-04T10:53:08.134Z,100529
2018-11-04T10:55:36.355Z,100525
2018-11-04T10:58:05.164Z,100515
2018-11-04T11:00:34.016Z,100516
2018-11-04T11:03:02.853Z,100522
2018-11-04T11:05:31.712Z,100503
2018-11-04T11:08:00.556Z,100497
2018-11-04T11:10:29.414Z,100495
2018-11-04T11:12:58.992Z,100483
2018-11-04T11:15:27.991Z,100480
2018-11-04T11:17:56.792Z,100476
2018-11-04T11:20:26.379Z,100468
2018-11-04T11:22:55.369Z,100479
2018-11-04T11:25:24.077Z,100474
2018-11-04T11:27:53.680Z,100474
2018-11-04T11:30:23.273Z,100467
2018-11-04T11:32:52.137Z,100459
2018-11-04T11:35:21.033Z,100455
2018-11-04T11:37:49.910Z,100451
2018-11-04T11:40:18.715Z,100456
2018-11-04T11:42:47.557Z,100444
2018-11-04T11:45:16.445Z,100438
2018-11-04T11:47:45.991Z,100430
2018-11-04T11:50:14.953Z,100437
2018-11-04T11:52:43.978Z,100433
2018-11-04T11:55:12.700Z,100438
2018-11-04T11:57:42.302Z,100449
2018-11-04T12:00:11.151Z,100440
2018-11-04T12:02:40.006Z,100429
2018-11-04T12:05:08.844Z,100424
2018-11-04T12:07:37.689Z,100419
2018-11-04T12:10:06.522Z,100414
2018-11-04T12:12:35.397Z,100411
2018-11-04T12:15:04.251Z,100407
2018-11-04T12:17:33.098Z,100406
2018-11-04T12:20:01.917Z,100401
2018-11-04T12:22:30.752Z,100407
2018-11-04T12:24:59.610Z,100407
2018-11-04T12:27:28.557Z,100408
2018-11-04T12:29:57.401Z,100406
2018-11-04T12:32:26.247Z,100407
2018-11-04T12:34:55.837Z,100399
2018-11-04T12:37:25.425Z,100396
2018-11-04T12:39:54.257Z,100381
2018-11-04T12:42:23.851Z,100389
2018-11-04T12:44:52.696Z,100384
2018-11-04T12:47:21.534Z,100385
2018-11-04T12:49:51.114Z,100378
2018-11-04T12:52:20.041Z,100368
2018-11-04T12:54:48.794Z,100371
2018-11-04T12:57:17.636Z,100368
2018-11-04T12:59:46.585Z,100359
2018-11-04T13:02:15.479Z,100365
2018-11-04T13:04:44.322Z,100368
2018-11-04T13:07:13.165Z,100367
2018-11-04T13:09:42.765Z,100357
2018-11-04T13:12:11.619Z,100346
2018-11-04T13:14:40.464Z,100342
2018-11-04T13:17:10.087Z,100344
2018-11-04T13:19:42.271Z,100338
2018-11-04T13:22:11.123Z,100335
2018-11-04T13:24:40.713Z,100335
2018-11-04T13:27:09.587Z,100332
2018-11-04T13:29:38.483Z,100333
2018-11-04T13:32:07.333Z,100318
2018-11-04T13:34:36.174Z,100317
2018-11-04T13:37:05.017Z,100320
2018-11-04T13:39:33.851Z,100324
2018-11-04T13:42:02.699Z,100322
2018-11-04T13:44:31.544Z,100316
2018-11-04T13:47:00.402Z,100314
2018-11-04T13:49:29.337Z,100320
2018-11-04T13:51:58.088Z,100300
2018-11-04T13:54:27.677Z,100311
2018-11-04T13:56:56.515Z,100307
2018-11-04T13:59:25.358Z,100308
2018-11-04T14:01:54.224Z,100305
2018-11-04T14:04:23.089Z,100288
2018-11-04T14:06:52.492Z,100291
2018-11-04T14:09:21.369Z,100286
2018-11-04T14:11:50.979Z,100282
2018-11-04T14:14:19.849Z,100278
2018-11-04T14:16:49.431Z,100279
2018-11-04T14:19:18.273Z,100275
2018-11-04T14:21:47.118Z,100274
2018-11-04T14:24:15.972Z,100273
2018-11-04T14:26:44.813Z,100268
2018-11-04T14:29:13.651Z,100258
2018-11-04T14:31:42.491Z,100260
2018-11-04T14:34:11.349Z,100269
2018-11-04T14:36:40.188Z,100266
2018-11-04T14:39:09.029Z,100266
2018-11-04T14:41:37.870Z,100261
2018-11-04T14:44:06.736Z,100273
2018-11-04T14:46:35.619Z,100282
2018-11-04T14:49:04.458Z,100273
2018-11-04T14:51:33.300Z,100277
2018-11-04T14:54:02.175Z,100274
2018-11-04T14:56:31.019Z,100281
2018-11-04T14:58:59.825Z,100286
2018-11-04T15:01:28.714Z,100284
2018-11-04T15:03:57.522Z,100274
2018-11-04T15:06:26.367Z,100276
2018-11-04T15:08:55.211Z,100285
2018-11-04T15:11:24.784Z,100278
2018-11-04T15:13:53.636Z,100279
2018-11-04T15:16:22.480Z,100273
2018-11-04T15:18:51.506Z,100268
2018-11-04T15:21:20.195Z,100270
2018-11-04T15:23:49.781Z,100262
2018-11-04T15:26:18.633Z,100256
2018-11-04T15:28:47.473Z,100257
2018-11-04T15:31:16.318Z,100252
2018-11-04T15:33:45.159Z,100245
2018-11-04T15:36:14.742Z,100252
2018-11-04T15:38:43.664Z,100243
2018-11-04T15:41:12.453Z,100245
2018-11-04T15:43:42.042Z,100237
2018-11-04T15:46:10.878Z,100239
2018-11-04T15:48:39.726Z,100232
2018-11-04T15:51:09.298Z,100235
2018-11-04T15:53:38.136Z,100225
2018-11-04T15:56:06.991Z,100225
2018-11-04T15:58:35.841Z,100223
2018-11-04T16:01:04.685Z,100227
2018-11-04T16:03:34.267Z,100214
2018-11-04T16:06:03.305Z,100209
2018-11-04T16:08:32.048Z,100216
2018-11-04T16:11:00.896Z,100213
2018-11-04T16:13:29.745Z,100214
2018-11-04T16:15:59.467Z,100217
2018-11-04T16:18:28.258Z,100217
2018-11-04T16:20:57.046Z,100213
2018-11-04T16:23:25.897Z,100222
2018-11-04T16:25:54.733Z,100210
2018-11-04T16:28:23.574Z,100210
2018-11-04T16:30:52.428Z,100205
2018-11-04T16:33:21.337Z,100209
2018-11-04T16:35:50.118Z,100209
2018-11-04T16:38:18.961Z,100212
2018-11-04T16:40:48.545Z,100207
2018-11-04T16:43:17.415Z,100213
2018-11-04T16:45:46.243Z,100214
2018-11-04T16:48:15.818Z,100212
2018-11-04T16:50:44.660Z,100218
2018-11-04T16:53:13.544Z,100226
2018-11-04T16:55:43.121Z,100224
2018-11-04T16:58:11.967Z,100223
2018-11-04T17:00:40.812Z,100226
2018-11-04T17:03:09.656Z,100234
2018-11-04T17:05:38.790Z,100229
2018-11-04T17:08:07.342Z,100226
2018-11-04T17:10:36.187Z,100215
2018-11-04T17:13:05.770Z,100219
2018-11-04T17:15:34.607Z,100205
2018-11-04T17:18:04.466Z,100204
2018-11-04T17:20:33.263Z,100207
2018-11-04T17:23:02.839Z,100196
2018-11-04T17:25:31.680Z,100186
2018-11-04T17:28:00.527Z,100196
2018-11-04T17:30:29.364Z,100192
2018-11-04T17:32:58.211Z,100185
2018-11-04T17:35:27.805Z,100186
2018-11-04T17:37:56.651Z,100184
2018-11-04T17:40:25.507Z,100184
2018-11-04T17:42:54.350Z,100181
2018-11-04T17:45:23.221Z,100180
2018-11-04T17:47:52.799Z,100171
2018-11-04T17:50:21.634Z,100176
2018-11-04T17:52:50.484Z,100187
2018-11-04T17:55:20.118Z,100174
2018-11-04T17:57:49.674Z,100171
2018-11-04T18:00:18.573Z,100174
2018-11-04T18:02:47.355Z,100189
2018-11-04T18:05:16.214Z,100186
2018-11-04T18:07:45.058Z,100186
2018-11-04T18:10:14.638Z,100182
2018-11-04T18:12:43.498Z,100177
2018-11-04T18:15:12.338Z,100184
2018-11-04T18:17:41.928Z,100176
2018-11-04T18:20:10.779Z,100185
2018-11-04T18:22:39.610Z,100177
2018-11-04T18:25:09.221Z,100170
2018-11-04T18:27:38.863Z,100174
2018-11-04T18:30:07.665Z,100172
2018-11-04T18:32:36.522Z,100177
2018-11-04T18:35:05.412Z,100178
2018-11-04T18:37:34.379Z,100174
2018-11-04T18:40:03.254Z,100166
2018-11-04T18:42:32.095Z,100157
2018-11-04T18:45:00.994Z,100172
2018-11-04T18:47:29.789Z,100166
2018-11-04T18:49:58.636Z,100161
2018-11-04T18:52:28.246Z,100168
2018-11-04T18:54:57.069Z,100168
2018-11-04T18:57:25.920Z,100159
2018-11-04T18:59:54.759Z,100173
2018-11-04T19:02:23.666Z,100175
2018-11-04T19:04:52.509Z,100183
2018-11-04T19:07:21.371Z,100179
2018-11-04T19:09:50.805Z,100177
2018-11-04T19:12:19.664Z,100174
2018-11-04T19:14:48.521Z,100180
2018-11-04T19:17:17.360Z,100175
2018-11-04T19:19:46.946Z,100178
2018-11-04T19:22:15.821Z,100186
2018-11-04T19:24:44.672Z,100182
2018-11-04T19:27:13.506Z,100175
2018-11-04T19:29:42.344Z,100170
2018-11-04T19:32:11.201Z,100167
2018-11-04T19:34:40.059Z,100160
2018-11-04T19:37:08.930Z,100164
2018-11-04T19:39:37.760Z,100169
2018-11-04T19:42:06.610Z,100164
2018-11-04T19:44:35.663Z,100160
2018-11-04T19:47:04.475Z,100168
2018-11-04T19:49:33.347Z,100164
2018-11-04T19:52:02.201Z,100167
2018-11-04T19:54:31.038Z,100163
2018-11-04T19:56:59.899Z,100161
2018-11-04T19:59:28.752Z,100152
2018-11-04T20:01:57.593Z,100143
2018-11-04T20:04:26.473Z,100147
2018-11-04T20:06:56.051Z,100143
2018-11-04T20:09:25.483Z,100137
2018-11-04T20:11:55.063Z,100142
2018-11-04T20:14:23.968Z,100142
2018-11-04T20:16:52.880Z,100139
2018-11-04T20:19:25.401Z,100131
2018-11-04T20:21:54.157Z,100130
2018-11-04T20:24:22.997Z,100140
2018-11-04T20:26:51.855Z,100138
2018-11-04T20:29:21.007Z,100138
2018-11-04T20:31:51.599Z,100136
2018-11-04T20:34:20.440Z,100145
2018-11-04T20:36:49.314Z,100155
2018-11-04T20:39:18.878Z,100153
2018-11-04T20:41:47.726Z,100150
2018-11-04T20:44:17.294Z,100145
2018-11-04T20:46:46.140Z,100135
2018-11-04T20:49:20.569Z,100121
2018-11-04T20:51:49.419Z,100112
2018-11-04T20:54:18.281Z,100100
2018-11-04T20:56:52.756Z,100113
2018-11-04T20:59:21.611Z,100098
2018-11-04T21:01:51.239Z,100093
2018-11-04T21:04:20.029Z,100091
2018-11-04T21:06:48.891Z,100088
2018-11-04T21:09:17.720Z,100092
2018-11-04T21:11:46.568Z,100093
2018-11-04T21:14:15.476Z,100092
2018-11-04T21:16:44.345Z,100104
2018-11-04T21:19:13.845Z,100104
2018-11-04T21:21:42.689Z,100080
2018-11-04T21:24:11.537Z,100085
2018-11-04T21:26:40.395Z,100083
2018-11-04T21:29:09.386Z,100081
2018-11-04T21:31:38.143Z,100086
2018-11-04T21:34:06.940Z,100078
2018-11-04T21:36:35.872Z,100080
2018-11-04T21:39:04.640Z,100083
2018-11-04T21:41:33.484Z,100084
2018-11-04T21:44:02.665Z,100085
2018-11-04T21:46:31.927Z,100076
2018-11-04T21:49:00.770Z,100077
2018-11-04T21:51:29.631Z,100073
2018-11-04T21:53:58.478Z,100083
2018-11-04T21:56:27.437Z,100070
2018-11-04T21:58:56.908Z,100064
2018-11-04T22:01:25.762Z,100059
2018-11-04T22:03:54.787Z,100058
2018-11-04T22:06:23.466Z,100051
2018-11-04T22:08:52.311Z,100051
2018-11-04T22:11:21.157Z,100041
2018-11-04T22:13:50.791Z,100042
2018-11-04T22:16:19.582Z,100035
2018-11-04T22:18:48.416Z,100036
2018-11-04T22:21:17.256Z,100036
2018-11-04T22:23:46.133Z,100028
2018-11-04T22:26:15.710Z,100035
2018-11-04T22:28:44.555Z,100030
2018-11-04T22:31:13.390Z,100027
2018-11-04T22:33:42.224Z,100025
2018-11-04T22:36:11.073Z,100022
2018-11-04T22:38:39.909Z,100025
2018-11-04T22:41:08.749Z,100015
2018-11-04T22:43:37.603Z,100012
2018-11-04T22:46:06.439Z,100013
2018-11-04T22:48:35.282Z,100005
2018-11-04T22:51:04.113Z,100005
2018-11-04T22:53:32.958Z,100001
2018-11-04T22:56:02.043Z,100004
2018-11-04T22:58:30.686Z,100011
2018-11-04T23:01:00.298Z,100004
2018-11-04T23:03:29.215Z,100009
2018-11-04T23:05:58.056Z,100010
2018-11-04T23:08:26.889Z,100015
2018-11-04T23:10:55.737Z,100021
2018-11-04T23:13:24.576Z,100016
2018-11-04T23:15:53.418Z,100019
2018-11-04T23:18:22.312Z,100018
2018-11-04T23:20:51.101Z,100013
2018-11-04T23:23:19.948Z,100015
2018-11-04T23:25:48.791Z,100011
2018-11-04T23:28:18.379Z,100002
2018-11-04T23:30:47.230Z,99993
2018-11-04T23:33:16.054Z,99992
2018-11-04T23:35:44.895Z,99994
2018-11-04T23:38:13.726Z,99972
2018-11-04T23:40:42.697Z,99963
2018-11-04T23:43:11.503Z,99961
2018-11-04T23:45:40.337Z,99977
2018-11-04T23:48:09.184Z,99971
2018-11-04T23:50:38.020Z,99977
2018-11-04T23:53:06.857Z,99975
2018-11-04T23:55:35.684Z,99966
2018-11-04T23:58:04.530Z,99965
